Time,TemperatureF,DewpointF,PressureIn,WindDirection,WindDirectionDegrees,WindSpeedMPH,WindSpeedGustMPH,Humidity,HourlyPrecipIn,Conditions,Clouds,dailyrainin,SoftwareType,DateUTC
2013-06-13 00:02:00,55.0,49.0,-100.00,SE,140,6.0,7.0,81,-99.99,,,-99.99,,2013-06-13 06:02:00,
2013-06-13 00:11:00,55.0,49.0,-100.00,SE,140,6.0,7.0,81,-99.99,,,-99.99,,2013-06-13 06:11:00,
2013-06-13 00:22:00,55.0,49.0,-100.00,SE,140,6.0,7.0,81,-99.99,,,-99.99,,2013-06-13 06:22:00,
2013-06-13 00:33:00,56.0,50.0,-100.00,ESE,120,7.0,9.0,81,-99.99,,,-99.99,,2013-06-13 06:33:00,
2013-06-13 00:44:00,56.0,50.0,-100.00,ESE,120,7.0,9.0,81,-99.99,,,-99.99,,2013-06-13 06:44:00,
2013-06-13 00:52:00,55.0,50.0,-100.00,ESE,120,6.0,7.0,81,-99.99,,,-99.99,,2013-06-13 06:52:00,
2013-06-13 01:01:00,56.0,51.0,-100.00,ESE,120,9.0,11.0,80,-99.99,,,-99.99,,2013-06-13 07:01:00,
2013-06-13 01:11:00,56.0,51.0,-100.00,ESE,120,9.0,11.0,80,-99.99,,,-99.99,,2013-06-13 07:11:00,
2013-06-13 01:22:00,56.0,51.0,-100.00,ESE,120,9.0,11.0,80,-99.99,,,-99.99,,2013-06-13 07:22:00,
2013-06-13 01:33:00,58.0,50.0,-100.00,SE,130,9.0,13.0,76,-99.99,,,-99.99,,2013-06-13 07:33:00,
2013-06-13 01:42:00,58.0,50.0,-100.00,SE,130,9.0,13.0,76,-99.99,,,-99.99,,2013-06-13 07:42:00,
2013-06-13 01:52:00,58.0,51.0,-100.00,SE,135,9.0,12.0,75,-99.99,,,-99.99,,2013-06-13 07:52:00,
2013-06-13 02:01:00,58.0,50.0,-100.00,SE,125,8.0,9.0,76,-99.99,,,-99.99,,2013-06-13 08:01:00,
2013-06-13 02:11:00,58.0,50.0,-100.00,SE,125,8.0,9.0,76,-99.99,,,-99.99,,2013-06-13 08:11:00,
2013-06-13 02:22:00,58.0,50.0,-100.00,SE,125,8.0,9.0,76,-99.99,,,-99.99,,2013-06-13 08:22:00,
2013-06-13 02:32:00,58.0,50.0,-100.00,ESE,110,7.0,12.0,75,-99.99,,,-99.99,,2013-06-13 08:32:00,
2013-06-13 02:43:00,58.0,50.0,-100.00,ESE,110,7.0,12.0,75,-99.99,,,-99.99,,2013-06-13 08:43:00,
2013-06-13 02:52:00,58.0,50.0,-100.00,SE,145,7.0,9.0,75,-99.99,,,-99.99,,2013-06-13 08:52:00,
2013-06-13 03:02:00,57.0,50.0,-100.00,SSE,150,6.0,8.0,77,-99.99,,,-99.99,,2013-06-13 09:02:00,
2013-06-13 03:11:00,57.0,50.0,-100.00,SSE,150,6.0,8.0,77,-99.99,,,-99.99,,2013-06-13 09:11:00,
2013-06-13 03:22:00,57.0,50.0,-100.00,SSE,150,6.0,8.0,77,-99.99,,,-99.99,,2013-06-13 09:22:00,
2013-06-13 03:32:00,57.0,50.0,-100.00,SSE,165,9.0,12.0,76,-99.99,,,-99.99,,2013-06-13 09:32:00,
2013-06-13 03:42:00,57.0,50.0,-100.00,SSE,165,9.0,12.0,76,-99.99,,,-99.99,,2013-06-13 09:42:00,
2013-06-13 03:52:00,57.0,50.0,-100.00,SSE,150,10.0,13.0,76,-99.99,,,-99.99,,2013-06-13 09:52:00,
2013-06-13 04:01:00,57.0,50.0,-100.00,SSE,150,14.0,19.0,77,-99.99,,,-99.99,,2013-06-13 10:01:00,
2013-06-13 04:11:00,57.0,50.0,-100.00,SSE,150,14.0,19.0,77,-99.99,,,-99.99,,2013-06-13 10:11:00,
2013-06-13 04:22:00,57.0,50.0,-100.00,SSE,150,14.0,19.0,77,-99.99,,,-99.99,,2013-06-13 10:22:00,
2013-06-13 04:33:00,57.0,50.0,-100.00,SE,140,12.0,16.0,78,-99.99,,,-99.99,,2013-06-13 10:33:00,
2013-06-13 04:42:00,57.0,50.0,-100.00,SE,140,12.0,16.0,78,-99.99,,,-99.99,,2013-06-13 10:42:00,
2013-06-13 04:53:00,57.0,50.0,-100.00,SE,140,12.0,17.0,78,-99.99,,,-99.99,,2013-06-13 10:53:00,
2013-06-13 05:02:00,57.0,50.0,-100.00,SE,140,12.0,21.0,77,-99.99,,,-99.99,,2013-06-13 11:02:00,
2013-06-13 05:11:00,57.0,50.0,-100.00,SE,140,12.0,21.0,77,-99.99,,,-99.99,,2013-06-13 11:11:00,
2013-06-13 05:23:00,57.0,50.0,-100.00,SE,140,12.0,21.0,77,-99.99,,,-99.99,,2013-06-13 11:23:00,
2013-06-13 05:32:00,57.0,49.0,-100.00,SSE,150,13.0,17.0,75,-99.99,,,-99.99,,2013-06-13 11:32:00,
2013-06-13 05:42:00,57.0,49.0,-100.00,SSE,150,13.0,17.0,75,-99.99,,,-99.99,,2013-06-13 11:42:00,
2013-06-13 05:52:00,57.0,49.0,-100.00,SSE,150,14.0,19.0,74,-99.99,,,-99.99,,2013-06-13 11:52:00,
2013-06-13 06:01:00,58.0,49.0,-100.00,SSE,150,16.0,21.0,72,-99.99,,,-99.99,,2013-06-13 12:01:00,
2013-06-13 06:11:00,58.0,49.0,-100.00,SSE,150,16.0,21.0,72,-99.99,,,-99.99,,2013-06-13 12:11:00,
2013-06-13 06:22:00,58.0,49.0,-100.00,SSE,150,16.0,21.0,72,-99.99,,,-99.99,,2013-06-13 12:22:00,
2013-06-13 06:34:00,59.0,49.0,-100.00,SSE,150,17.0,26.0,69,-99.99,,,-99.99,,2013-06-13 12:34:00,
2013-06-13 06:42:00,59.0,49.0,-100.00,SSE,150,17.0,26.0,69,-99.99,,,-99.99,,2013-06-13 12:42:00,
2013-06-13 06:52:00,59.0,49.0,-100.00,SE,140,14.0,20.0,69,-99.99,,,-99.99,,2013-06-13 12:52:00,
2013-06-13 07:01:00,59.0,49.0,-100.00,SE,140,17.0,24.0,67,-99.99,,,-99.99,,2013-06-13 13:01:00,
2013-06-13 07:11:00,59.0,49.0,-100.00,SE,140,17.0,24.0,67,-99.99,,,-99.99,,2013-06-13 13:11:00,
2013-06-13 07:21:00,59.0,49.0,-100.00,SE,140,17.0,24.0,67,-99.99,,,-99.99,,2013-06-13 13:21:00,
2013-06-13 07:32:00,62.0,48.0,-100.00,SE,145,15.0,19.0,61,-99.99,,,-99.99,,2013-06-13 13:32:00,
2013-06-13 07:43:00,62.0,48.0,-100.00,SE,145,15.0,19.0,61,-99.99,,,-99.99,,2013-06-13 13:43:00,
2013-06-13 07:53:00,62.0,48.0,-100.00,SE,135,19.0,23.0,60,-99.99,,,-99.99,,2013-06-13 13:53:00,
2013-06-13 08:02:00,63.0,48.0,-100.00,SE,145,21.0,26.0,58,-99.99,,,-99.99,,2013-06-13 14:02:00,
2013-06-13 08:11:00,63.0,48.0,-100.00,SE,145,21.0,26.0,58,-99.99,,,-99.99,,2013-06-13 14:11:00,
2013-06-13 08:22:00,63.0,48.0,-100.00,SE,145,21.0,26.0,58,-99.99,,,-99.99,,2013-06-13 14:22:00,
2013-06-13 08:33:00,63.0,48.0,-100.00,SE,140,18.0,27.0,57,-99.99,,,-99.99,,2013-06-13 14:33:00,
2013-06-13 08:43:00,63.0,48.0,-100.00,SE,140,18.0,27.0,57,-99.99,,,-99.99,,2013-06-13 14:43:00,
2013-06-13 08:53:00,63.0,48.0,-100.00,SE,135,22.0,29.0,57,-99.99,,,-99.99,,2013-06-13 14:53:00,
2013-06-13 09:01:00,64.0,49.0,-100.00,SE,135,19.0,29.0,56,-99.99,,,-99.99,,2013-06-13 15:01:00,
2013-06-13 09:12:00,64.0,49.0,-100.00,SE,135,19.0,29.0,56,-99.99,,,-99.99,,2013-06-13 15:12:00,
2013-06-13 09:22:00,64.0,49.0,-100.00,SE,135,19.0,29.0,56,-99.99,,,-99.99,,2013-06-13 15:22:00,
2013-06-13 09:33:00,66.0,48.0,-100.00,SE,135,23.0,31.0,52,-99.99,,,-99.99,,2013-06-13 15:33:00,
2013-06-13 09:43:00,66.0,48.0,-100.00,SE,135,23.0,31.0,52,-99.99,,,-99.99,,2013-06-13 15:43:00,
2013-06-13 09:53:00,64.0,47.0,-100.00,SSE,155,25.0,31.0,52,-99.99,,,-99.99,,2013-06-13 15:53:00,
2013-06-13 10:02:00,66.0,47.0,-100.00,SE,140,22.0,29.0,49,-99.99,,,-99.99,,2013-06-13 16:02:00,
2013-06-13 10:12:00,66.0,47.0,-100.00,SE,140,22.0,29.0,49,-99.99,,,-99.99,,2013-06-13 16:12:00,
2013-06-13 10:22:00,66.0,47.0,-100.00,SE,140,22.0,29.0,49,-99.99,,,-99.99,,2013-06-13 16:22:00,
2013-06-13 10:24:00,68.0,46.0,-100.00,SE,130,23.0,27.0,46,-99.99,,,-99.99,,2013-06-13 16:24:00,
2013-06-13 10:33:00,67.0,47.0,-100.00,SE,145,23.0,29.0,49,-99.99,,,-99.99,,2013-06-13 16:33:00,
2013-06-13 10:43:00,67.0,47.0,-100.00,SE,145,23.0,29.0,49,-99.99,,,-99.99,,2013-06-13 16:43:00,
2013-06-13 10:53:00,67.0,48.0,-100.00,SE,140,17.0,27.0,49,-99.99,,,-99.99,,2013-06-13 16:53:00,
2013-06-13 11:02:00,68.0,46.0,-100.00,SE,130,23.0,27.0,46,-99.99,,,-99.99,,2013-06-13 17:02:00,
2013-06-13 11:11:00,68.0,46.0,-100.00,SE,130,23.0,27.0,46,-99.99,,,-99.99,,2013-06-13 17:11:00,
2013-06-13 11:33:00,68.0,45.0,-100.00,SE,135,27.0,35.0,43,-99.99,,,-99.99,,2013-06-13 17:33:00,
2013-06-13 11:53:00,70.0,48.0,-100.00,SE,145,19.0,31.0,45,-99.99,,,-99.99,,2013-06-13 17:53:00,
2013-06-13 12:02:00,70.0,47.0,-100.00,SE,130,24.0,30.0,44,-99.99,,,-99.99,,2013-06-13 18:02:00,
2013-06-13 12:11:00,70.0,47.0,-100.00,SE,130,24.0,30.0,44,-99.99,,,-99.99,,2013-06-13 18:11:00,
2013-06-13 12:22:00,70.0,47.0,-100.00,SE,130,24.0,30.0,44,-99.99,,,-99.99,,2013-06-13 18:22:00,
2013-06-13 12:33:00,68.0,46.0,-100.00,SE,130,25.0,35.0,44,-99.99,,,-99.99,,2013-06-13 18:33:00,
2013-06-13 12:43:00,68.0,46.0,-100.00,SE,130,25.0,35.0,44,-99.99,,,-99.99,,2013-06-13 18:43:00,
2013-06-13 12:52:00,70.0,47.0,-100.00,SE,145,24.0,34.0,43,-99.99,,,-99.99,,2013-06-13 18:52:00,
2013-06-13 13:01:00,71.0,47.0,-100.00,SE,130,25.0,34.0,43,-99.99,,,-99.99,,2013-06-13 19:01:00,
2013-06-13 13:11:00,71.0,47.0,-100.00,SE,130,25.0,34.0,43,-99.99,,,-99.99,,2013-06-13 19:11:00,
2013-06-13 13:22:00,71.0,47.0,-100.00,SE,130,25.0,34.0,43,-99.99,,,-99.99,,2013-06-13 19:22:00,
2013-06-13 13:33:00,70.0,46.0,-100.00,SE,145,29.0,37.0,41,-99.99,,,-99.99,,2013-06-13 19:33:00,
2013-06-13 13:43:00,70.0,46.0,-100.00,SE,145,29.0,37.0,41,-99.99,,,-99.99,,2013-06-13 19:43:00,
2013-06-13 13:53:00,71.0,47.0,-100.00,SE,130,26.0,32.0,43,-99.99,,,-99.99,,2013-06-13 19:53:00,
2013-06-13 14:33:00,69.0,45.0,-100.00,SE,140,26.0,37.0,43,-99.99,,,-99.99,,2013-06-13 20:33:00,
2013-06-13 15:34:00,71.0,48.0,-100.00,SE,140,24.0,29.0,42,-99.99,,,-99.99,,2013-06-13 21:34:00,
2013-06-13 15:43:00,71.0,48.0,-100.00,SE,140,24.0,29.0,42,-99.99,,,-99.99,,2013-06-13 21:43:00,
2013-06-13 16:11:00,70.0,47.0,-100.00,SE,135,13.0,27.0,44,-99.99,,,-99.99,,2013-06-13 22:11:00,
2013-06-13 16:22:00,70.0,47.0,-100.00,SE,135,13.0,27.0,44,-99.99,,,-99.99,,2013-06-13 22:22:00,
2013-06-13 16:32:00,70.0,47.0,-100.00,SE,140,17.0,23.0,43,-99.99,,,-99.99,,2013-06-13 22:32:00,
2013-06-13 16:43:00,70.0,47.0,-100.00,SE,140,17.0,23.0,43,-99.99,,,-99.99,,2013-06-13 22:43:00,
2013-06-13 17:02:00,70.0,47.0,-100.00,SSE,150,14.0,17.0,43,-99.99,,,-99.99,,2013-06-13 23:02:00,
2013-06-13 17:11:00,70.0,47.0,-100.00,SSE,150,14.0,17.0,43,-99.99,,,-99.99,,2013-06-13 23:11:00,
2013-06-13 17:22:00,70.0,47.0,-100.00,SSE,150,14.0,17.0,43,-99.99,,,-99.99,,2013-06-13 23:22:00,
2013-06-13 17:32:00,70.0,48.0,-100.00,SE,140,17.0,22.0,45,-99.99,,,-99.99,,2013-06-13 23:32:00,
2013-06-13 17:43:00,70.0,48.0,-100.00,SE,140,17.0,22.0,45,-99.99,,,-99.99,,2013-06-13 23:43:00,
2013-06-13 17:52:00,70.0,48.0,-100.00,SE,140,17.0,26.0,44,-99.99,,,-99.99,,2013-06-13 23:52:00,
2013-06-13 18:34:00,69.0,47.0,-100.00,SSE,150,15.0,20.0,44,-99.99,,,-99.99,,2013-06-14 00:34:00,
2013-06-13 18:43:00,69.0,47.0,-100.00,SSE,150,15.0,20.0,44,-99.99,,,-99.99,,2013-06-14 00:43:00,
2013-06-13 18:53:00,69.0,47.0,-100.00,SSE,155,16.0,23.0,44,-99.99,,,-99.99,,2013-06-14 00:53:00,
2013-06-13 19:01:00,69.0,47.0,-100.00,SSE,150,17.0,21.0,45,-99.99,,,-99.99,,2013-06-14 01:01:00,
2013-06-13 19:11:00,69.0,47.0,-100.00,SSE,150,17.0,21.0,45,-99.99,,,-99.99,,2013-06-14 01:11:00,
2013-06-13 19:32:00,68.0,47.0,-100.00,SE,145,12.0,17.0,46,-99.99,,,-99.99,,2013-06-14 01:32:00,
2013-06-13 20:32:00,67.0,46.0,-100.00,SE,130,21.0,28.0,46,-99.99,,,-99.99,,2013-06-14 02:32:00,
2013-06-13 21:02:00,66.0,47.0,-100.00,SE,125,19.0,23.0,51,-99.99,,,-99.99,,2013-06-14 03:02:00,
2013-06-13 21:11:00,66.0,47.0,-100.00,SE,125,19.0,23.0,51,-99.99,,,-99.99,,2013-06-14 03:11:00,
2013-06-13 21:22:00,66.0,47.0,-100.00,SE,125,19.0,23.0,51,-99.99,,,-99.99,,2013-06-14 03:22:00,
2013-06-13 21:34:00,64.0,49.0,-100.00,ESE,120,17.0,24.0,57,-99.99,,,-99.99,,2013-06-14 03:34:00,
2013-06-13 21:43:00,64.0,49.0,-100.00,ESE,120,17.0,24.0,57,-99.99,,,-99.99,,2013-06-14 03:43:00,
2013-06-13 21:52:00,64.0,49.0,-100.00,SE,125,17.0,25.0,57,-99.99,,,-99.99,,2013-06-14 03:52:00,
2013-06-13 22:01:00,64.0,49.0,-100.00,SE,125,13.0,21.0,57,-99.99,,,-99.99,,2013-06-14 04:01:00,
2013-06-13 22:12:00,64.0,49.0,-100.00,SE,125,13.0,21.0,57,-99.99,,,-99.99,,2013-06-14 04:12:00,
2013-06-13 22:22:00,64.0,49.0,-100.00,SE,125,13.0,21.0,57,-99.99,,,-99.99,,2013-06-14 04:22:00,
2013-06-13 22:33:00,63.0,49.0,-100.00,SE,130,15.0,20.0,60,-99.99,,,-99.99,,2013-06-14 04:33:00,
2013-06-13 22:43:00,63.0,49.0,-100.00,SE,130,15.0,20.0,60,-99.99,,,-99.99,,2013-06-14 04:43:00,
2013-06-13 22:53:00,62.0,49.0,-100.00,SE,135,13.0,19.0,61,-99.99,,,-99.99,,2013-06-14 04:53:00,
2013-06-13 23:02:00,61.0,49.0,-100.00,SE,125,12.0,15.0,64,-99.99,,,-99.99,,2013-06-14 05:02:00,
2013-06-13 23:11:00,61.0,49.0,-100.00,SE,125,12.0,15.0,64,-99.99,,,-99.99,,2013-06-14 05:11:00,
2013-06-13 23:22:00,61.0,49.0,-100.00,SE,125,12.0,15.0,64,-99.99,,,-99.99,,2013-06-14 05:22:00,
2013-06-13 23:34:00,60.0,50.0,-100.00,ESE,120,9.0,12.0,68,-99.99,,,-99.99,,2013-06-14 05:34:00,
2013-06-13 23:43:00,60.0,50.0,-100.00,ESE,120,9.0,12.0,68,-99.99,,,-99.99,,2013-06-14 05:43:00,
2013-06-13 23:52:00,60.0,50.0,-100.00,ESE,110,9.0,11.0,70,-99.99,,,-99.99,,2013-06-14 05:52:00,